sensor_id;sensor_type;location;lat;lon;timestamp;P1;durP1;ratioP1;P2;durP2;ratioP2
45932;SDS011;51011;46.790;17.184;2022-07-23T00:02:24;7.32;;;6.63;;
45932;SDS011;51011;46.790;17.184;2022-07-23T00:04:50;9.15;;;7.18;;
45932;SDS011;51011;46.790;17.184;2022-07-23T00:07:15;8.05;;;7.25;;
45932;SDS011;51011;46.790;17.184;2022-07-23T00:09:41;7.93;;;7.20;;
45932;SDS011;51011;46.790;17.184;2022-07-23T00:12:07;7.80;;;7.00;;
45932;SDS011;51011;46.790;17.184;2022-07-23T00:14:32;7.88;;;6.97;;
45932;SDS011;51011;46.790;17.184;2022-07-23T00:16:58;7.90;;;7.20;;
45932;SDS011;51011;46.790;17.184;2022-07-23T00:19:24;8.32;;;6.90;;
45932;SDS011;51011;46.790;17.184;2022-07-23T00:21:49;7.60;;;6.70;;
45932;SDS011;51011;46.790;17.184;2022-07-23T00:24:15;8.38;;;7.05;;
45932;SDS011;51011;46.790;17.184;2022-07-23T00:26:40;10.80;;;7.65;;
45932;SDS011;51011;46.790;17.184;2022-07-23T00:29:06;8.60;;;6.78;;
45932;SDS011;51011;46.790;17.184;2022-07-23T00:31:31;7.45;;;6.72;;
45932;SDS011;51011;46.790;17.184;2022-07-23T00:33:58;7.93;;;7.10;;
45932;SDS011;51011;46.790;17.184;2022-07-23T00:36:26;7.90;;;7.05;;
45932;SDS011;51011;46.790;17.184;2022-07-23T00:38:52;7.18;;;6.47;;
45932;SDS011;51011;46.790;17.184;2022-07-23T00:41:18;7.50;;;6.45;;
45932;SDS011;51011;46.790;17.184;2022-07-23T00:43:44;8.02;;;7.03;;
45932;SDS011;51011;46.790;17.184;2022-07-23T00:46:09;7.60;;;6.90;;
45932;SDS011;51011;46.790;17.184;2022-07-23T00:48:35;7.47;;;6.63;;
45932;SDS011;51011;46.790;17.184;2022-07-23T00:51:01;8.13;;;7.25;;
45932;SDS011;51011;46.790;17.184;2022-07-23T00:53:26;7.30;;;6.55;;
45932;SDS011;51011;46.790;17.184;2022-07-23T00:55:53;8.63;;;7.00;;
45932;SDS011;51011;46.790;17.184;2022-07-23T00:58:19;9.93;;;6.97;;
45932;SDS011;51011;46.790;17.184;2022-07-23T01:06:14;8.90;;;7.05;;
45932;SDS011;51011;46.790;17.184;2022-07-23T01:08:39;8.40;;;6.82;;
45932;SDS011;51011;46.790;17.184;2022-07-23T01:11:06;7.60;;;6.80;;
45932;SDS011;51011;46.790;17.184;2022-07-23T01:13:32;7.82;;;7.05;;
45932;SDS011;51011;46.790;17.184;2022-07-23T01:15:58;8.65;;;6.93;;
45932;SDS011;51011;46.790;17.184;2022-07-23T01:18:23;9.48;;;7.57;;
45932;SDS011;51011;46.790;17.184;2022-07-23T01:20:49;9.07;;;6.70;;
45932;SDS011;51011;46.790;17.184;2022-07-23T01:23:15;8.70;;;6.70;;
45932;SDS011;51011;46.790;17.184;2022-07-23T01:25:49;9.40;;;6.85;;
45932;SDS011;51011;46.790;17.184;2022-07-23T01:28:17;8.27;;;7.22;;
45932;SDS011;51011;46.790;17.184;2022-07-23T01:30:44;8.63;;;6.82;;
45932;SDS011;51011;46.790;17.184;2022-07-23T01:33:11;8.40;;;7.20;;
45932;SDS011;51011;46.790;17.184;2022-07-23T01:35:37;7.93;;;7.10;;
45932;SDS011;51011;46.790;17.184;2022-07-23T01:38:05;7.60;;;6.70;;
45932;SDS011;51011;46.790;17.184;2022-07-23T01:40:31;9.32;;;6.60;;
45932;SDS011;51011;46.790;17.184;2022-07-23T01:42:57;7.40;;;6.70;;
45932;SDS011;51011;46.790;17.184;2022-07-23T01:45:22;8.05;;;7.25;;
45932;SDS011;51011;46.790;17.184;2022-07-23T02:25:17;8.65;;;7.30;;
45932;SDS011;51011;46.790;17.184;2022-07-23T02:27:44;8.38;;;6.72;;
45932;SDS011;51011;46.790;17.184;2022-07-23T02:30:09;8.50;;;6.88;;
45932;SDS011;51011;46.790;17.184;2022-07-23T02:32:35;8.55;;;7.10;;
45932;SDS011;51011;46.790;17.184;2022-07-23T02:35:01;9.85;;;7.45;;
45932;SDS011;51011;46.790;17.184;2022-07-23T02:37:27;8.45;;;7.53;;
45932;SDS011;51011;46.790;17.184;2022-07-23T02:39:53;10.50;;;6.97;;
45932;SDS011;51011;46.790;17.184;2022-07-23T02:42:19;8.68;;;7.03;;
45932;SDS011;51011;46.790;17.184;2022-07-23T02:44:44;8.55;;;7.55;;
45932;SDS011;51011;46.790;17.184;2022-07-23T02:47:10;8.75;;;7.32;;
45932;SDS011;51011;46.790;17.184;2022-07-23T02:49:36;8.15;;;7.05;;
45932;SDS011;51011;46.790;17.184;2022-07-23T02:52:04;7.63;;;6.90;;
45932;SDS011;51011;46.790;17.184;2022-07-23T02:54:30;9.25;;;7.43;;
45932;SDS011;51011;46.790;17.184;2022-07-23T02:56:55;7.85;;;6.97;;
45932;SDS011;51011;46.790;17.184;2022-07-23T02:59:21;7.63;;;6.72;;
45932;SDS011;51011;46.790;17.184;2022-07-23T03:01:47;8.77;;;6.88;;
45932;SDS011;51011;46.790;17.184;2022-07-23T03:04:12;9.57;;;7.63;;
45932;SDS011;51011;46.790;17.184;2022-07-23T03:06:41;7.82;;;7.03;;
45932;SDS011;51011;46.790;17.184;2022-07-23T03:09:06;8.80;;;7.88;;
45932;SDS011;51011;46.790;17.184;2022-07-23T03:11:32;8.68;;;7.32;;
45932;SDS011;51011;46.790;17.184;2022-07-23T03:13:57;9.10;;;7.43;;
45932;SDS011;51011;46.790;17.184;2022-07-23T03:16:23;9.48;;;7.70;;
45932;SDS011;51011;46.790;17.184;2022-07-23T03:18:49;9.50;;;7.43;;
45932;SDS011;51011;46.790;17.184;2022-07-23T03:21:14;11.07;;;7.50;;
45932;SDS011;51011;46.790;17.184;2022-07-23T03:23:40;8.60;;;7.78;;
45932;SDS011;51011;46.790;17.184;2022-07-23T03:26:06;8.77;;;7.30;;
45932;SDS011;51011;46.790;17.184;2022-07-23T03:28:32;10.45;;;7.88;;
45932;SDS011;51011;46.790;17.184;2022-07-23T03:30:57;8.10;;;7.40;;
45932;SDS011;51011;46.790;17.184;2022-07-23T03:33:23;10.02;;;7.93;;
45932;SDS011;51011;46.790;17.184;2022-07-23T03:35:49;9.07;;;7.97;;
45932;SDS011;51011;46.790;17.184;2022-07-23T03:38:19;8.25;;;7.30;;
45932;SDS011;51011;46.790;17.184;2022-07-23T03:40:45;9.70;;;8.10;;
45932;SDS011;51011;46.790;17.184;2022-07-23T03:43:10;9.30;;;8.35;;
45932;SDS011;51011;46.790;17.184;2022-07-23T03:45:36;8.90;;;8.00;;
45932;SDS011;51011;46.790;17.184;2022-07-23T03:48:02;9.50;;;8.60;;
45932;SDS011;51011;46.790;17.184;2022-07-23T03:50:28;11.52;;;8.50;;
45932;SDS011;51011;46.790;17.184;2022-07-23T03:52:53;10.40;;;8.30;;
45932;SDS011;51011;46.790;17.184;2022-07-23T03:55:19;12.52;;;9.27;;
45932;SDS011;51011;46.790;17.184;2022-07-23T03:57:45;9.73;;;8.57;;
45932;SDS011;51011;46.790;17.184;2022-07-23T04:00:11;10.30;;;9.20;;
45932;SDS011;51011;46.790;17.184;2022-07-23T04:02:41;9.82;;;8.38;;
45932;SDS011;51011;46.790;17.184;2022-07-23T04:05:09;11.80;;;8.63;;
45932;SDS011;51011;46.790;17.184;2022-07-23T04:07:35;10.60;;;7.97;;
45932;SDS011;51011;46.790;17.184;2022-07-23T04:10:01;14.82;;;8.77;;
45932;SDS011;51011;46.790;17.184;2022-07-23T04:12:26;10.30;;;7.82;;
45932;SDS011;51011;46.790;17.184;2022-07-23T04:14:52;12.48;;;7.82;;
45932;SDS011;51011;46.790;17.184;2022-07-23T04:17:18;12.13;;;7.78;;
45932;SDS011;51011;46.790;17.184;2022-07-23T04:19:43;9.63;;;8.57;;
45932;SDS011;51011;46.790;17.184;2022-07-23T04:22:11;11.45;;;9.80;;
45932;SDS011;51011;46.790;17.184;2022-07-23T04:24:38;13.40;;;9.30;;
45932;SDS011;51011;46.790;17.184;2022-07-23T04:27:04;10.32;;;8.90;;
45932;SDS011;51011;46.790;17.184;2022-07-23T04:29:30;10.57;;;8.98;;
45932;SDS011;51011;46.790;17.184;2022-07-23T04:31:56;10.25;;;9.25;;
45932;SDS011;51011;46.790;17.184;2022-07-23T04:34:22;12.02;;;8.63;;
45932;SDS011;51011;46.790;17.184;2022-07-23T04:36:48;9.30;;;8.30;;
45932;SDS011;51011;46.790;17.184;2022-07-23T04:39:14;9.15;;;8.35;;
45932;SDS011;51011;46.790;17.184;2022-07-23T04:41:40;9.77;;;8.88;;
45932;SDS011;51011;46.790;17.184;2022-07-23T04:44:06;10.27;;;9.18;;
45932;SDS011;51011;46.790;17.184;2022-07-23T04:46:32;9.60;;;8.68;;
45932;SDS011;51011;46.790;17.184;2022-07-23T04:48:58;10.27;;;9.05;;
45932;SDS011;51011;46.790;17.184;2022-07-23T04:51:24;10.27;;;9.02;;
45932;SDS011;51011;46.790;17.184;2022-07-23T04:53:51;10.77;;;8.85;;
45932;SDS011;51011;46.790;17.184;2022-07-23T04:56:16;9.65;;;8.75;;
45932;SDS011;51011;46.790;17.184;2022-07-23T04:58:42;9.63;;;8.73;;
45932;SDS011;51011;46.790;17.184;2022-07-23T05:01:08;9.07;;;8.27;;
45932;SDS011;51011;46.790;17.184;2022-07-23T05:03:34;10.88;;;8.77;;
45932;SDS011;51011;46.790;17.184;2022-07-23T05:06:00;9.80;;;8.90;;
45932;SDS011;51011;46.790;17.184;2022-07-23T05:08:26;11.20;;;8.57;;
45932;SDS011;51011;46.790;17.184;2022-07-23T05:10:54;13.23;;;9.32;;
45932;SDS011;51011;46.790;17.184;2022-07-23T05:13:20;9.00;;;8.10;;
45932;SDS011;51011;46.790;17.184;2022-07-23T05:15:50;10.38;;;8.32;;
45932;SDS011;51011;46.790;17.184;2022-07-23T05:18:16;9.55;;;8.55;;
45932;SDS011;51011;46.790;17.184;2022-07-23T05:20:42;11.77;;;8.60;;
45932;SDS011;51011;46.790;17.184;2022-07-23T05:23:10;10.60;;;8.60;;
45932;SDS011;51011;46.790;17.184;2022-07-23T05:25:36;9.48;;;8.48;;
45932;SDS011;51011;46.790;17.184;2022-07-23T05:28:01;8.82;;;7.95;;
45932;SDS011;51011;46.790;17.184;2022-07-23T05:30:27;9.75;;;8.38;;
45932;SDS011;51011;46.790;17.184;2022-07-23T05:32:58;11.35;;;8.52;;
45932;SDS011;51011;46.790;17.184;2022-07-23T05:35:23;9.32;;;8.18;;
45932;SDS011;51011;46.790;17.184;2022-07-23T05:38:06;12.95;;;8.07;;
45932;SDS011;51011;46.790;17.184;2022-07-23T05:40:33;9.85;;;8.63;;
45932;SDS011;51011;46.790;17.184;2022-07-23T05:42:59;10.98;;;8.10;;
45932;SDS011;51011;46.790;17.184;2022-07-23T05:45:25;14.07;;;9.18;;
45932;SDS011;51011;46.790;17.184;2022-07-23T05:47:50;10.60;;;9.40;;
45932;SDS011;51011;46.790;17.184;2022-07-23T05:50:34;10.63;;;9.43;;
45932;SDS011;51011;46.790;17.184;2022-07-23T05:53:09;9.07;;;8.25;;
45932;SDS011;51011;46.790;17.184;2022-07-23T05:56:13;9.82;;;8.82;;
45932;SDS011;51011;46.790;17.184;2022-07-23T05:58:39;10.18;;;8.65;;
45932;SDS011;51011;46.790;17.184;2022-07-23T06:01:05;10.15;;;8.63;;
45932;SDS011;51011;46.790;17.184;2022-07-23T06:03:39;15.40;;;8.68;;
45932;SDS011;51011;46.790;17.184;2022-07-23T06:06:05;13.70;;;8.45;;
45932;SDS011;51011;46.790;17.184;2022-07-23T06:08:31;10.05;;;8.38;;
45932;SDS011;51011;46.790;17.184;2022-07-23T06:10:58;10.63;;;7.93;;
45932;SDS011;51011;46.790;17.184;2022-07-23T06:13:24;11.65;;;8.25;;
45932;SDS011;51011;46.790;17.184;2022-07-23T06:15:49;12.15;;;8.70;;
45932;SDS011;51011;46.790;17.184;2022-07-23T06:18:15;8.93;;;8.05;;
45932;SDS011;51011;46.790;17.184;2022-07-23T06:20:41;9.45;;;8.38;;
45932;SDS011;51011;46.790;17.184;2022-07-23T06:23:06;8.95;;;7.97;;
45932;SDS011;51011;46.790;17.184;2022-07-23T06:25:33;9.20;;;8.30;;
45932;SDS011;51011;46.790;17.184;2022-07-23T06:27:58;10.98;;;8.13;;
45932;SDS011;51011;46.790;17.184;2022-07-23T06:30:25;9.00;;;8.20;;
45932;SDS011;51011;46.790;17.184;2022-07-23T06:32:51;9.32;;;7.90;;
45932;SDS011;51011;46.790;17.184;2022-07-23T06:35:17;11.85;;;8.65;;
45932;SDS011;51011;46.790;17.184;2022-07-23T06:37:45;10.85;;;8.13;;
45932;SDS011;51011;46.790;17.184;2022-07-23T06:40:11;9.75;;;8.43;;
45932;SDS011;51011;46.790;17.184;2022-07-23T06:42:39;11.25;;;8.70;;
45932;SDS011;51011;46.790;17.184;2022-07-23T06:45:05;11.85;;;8.45;;
45932;SDS011;51011;46.790;17.184;2022-07-23T06:47:33;10.82;;;7.93;;
45932;SDS011;51011;46.790;17.184;2022-07-23T06:49:59;10.38;;;7.72;;
45932;SDS011;51011;46.790;17.184;2022-07-23T06:52:25;8.93;;;8.02;;
45932;SDS011;51011;46.790;17.184;2022-07-23T06:54:51;8.43;;;7.68;;
45932;SDS011;51011;46.790;17.184;2022-07-23T06:57:17;9.65;;;7.35;;
45932;SDS011;51011;46.790;17.184;2022-07-23T06:59:43;13.00;;;7.45;;
45932;SDS011;51011;46.790;17.184;2022-07-23T07:02:08;12.90;;;10.38;;
45932;SDS011;51011;46.790;17.184;2022-07-23T07:04:34;9.02;;;7.53;;
45932;SDS011;51011;46.790;17.184;2022-07-23T07:07:00;12.48;;;7.60;;
45932;SDS011;51011;46.790;17.184;2022-07-23T07:09:25;8.68;;;7.68;;
45932;SDS011;51011;46.790;17.184;2022-07-23T07:11:51;8.30;;;7.40;;
45932;SDS011;51011;46.790;17.184;2022-07-23T07:14:17;8.98;;;7.63;;
45932;SDS011;51011;46.790;17.184;2022-07-23T07:16:42;8.88;;;7.15;;
45932;SDS011;51011;46.790;17.184;2022-07-23T07:19:08;10.90;;;6.60;;
45932;SDS011;51011;46.790;17.184;2022-07-23T07:21:34;10.05;;;7.45;;
45932;SDS011;51011;46.790;17.184;2022-07-23T07:24:00;7.70;;;6.65;;
45932;SDS011;51011;46.790;17.184;2022-07-23T07:26:26;11.90;;;7.13;;
45932;SDS011;51011;46.790;17.184;2022-07-23T07:28:51;8.88;;;7.00;;
45932;SDS011;51011;46.790;17.184;2022-07-23T07:31:17;7.95;;;6.28;;
45932;SDS011;51011;46.790;17.184;2022-07-23T07:33:43;11.73;;;6.80;;
45932;SDS011;51011;46.790;17.184;2022-07-23T07:36:08;9.85;;;6.72;;
45932;SDS011;51011;46.790;17.184;2022-07-23T07:38:34;9.07;;;6.97;;
45932;SDS011;51011;46.790;17.184;2022-07-23T07:40:59;9.73;;;6.57;;
45932;SDS011;51011;46.790;17.184;2022-07-23T07:43:25;9.27;;;6.25;;
45932;SDS011;51011;46.790;17.184;2022-07-23T07:45:50;10.15;;;6.50;;
45932;SDS011;51011;46.790;17.184;2022-07-23T07:48:16;9.77;;;6.60;;
45932;SDS011;51011;46.790;17.184;2022-07-23T07:50:42;10.10;;;6.75;;
45932;SDS011;51011;46.790;17.184;2022-07-23T07:53:07;8.13;;;6.63;;
45932;SDS011;51011;46.790;17.184;2022-07-23T07:55:34;7.97;;;6.97;;
45932;SDS011;51011;46.790;17.184;2022-07-23T07:58:00;10.30;;;6.75;;
45932;SDS011;51011;46.790;17.184;2022-07-23T08:00:25;7.85;;;6.70;;
45932;SDS011;51011;46.790;17.184;2022-07-23T08:02:51;7.47;;;6.63;;
45932;SDS011;51011;46.790;17.184;2022-07-23T08:05:22;9.57;;;6.43;;
45932;SDS011;51011;46.790;17.184;2022-07-23T08:07:49;9.18;;;6.25;;
45932;SDS011;51011;46.790;17.184;2022-07-23T08:10:15;6.75;;;6.05;;
45932;SDS011;51011;46.790;17.184;2022-07-23T08:12:51;9.43;;;6.63;;
45932;SDS011;51011;46.790;17.184;2022-07-23T08:15:19;13.02;;;6.65;;
45932;SDS011;51011;46.790;17.184;2022-07-23T08:17:46;9.95;;;6.00;;
45932;SDS011;51011;46.790;17.184;2022-07-23T08:20:12;7.03;;;6.32;;
45932;SDS011;51011;46.790;17.184;2022-07-23T08:25:13;8.32;;;6.00;;
45932;SDS011;51011;46.790;17.184;2022-07-23T08:27:40;10.43;;;7.03;;
45932;SDS011;51011;46.790;17.184;2022-07-23T08:30:06;8.20;;;6.25;;
45932;SDS011;51011;46.790;17.184;2022-07-23T08:32:32;7.85;;;5.53;;
45932;SDS011;51011;46.790;17.184;2022-07-23T08:34:57;7.95;;;6.53;;
45932;SDS011;51011;46.790;17.184;2022-07-23T08:37:23;6.50;;;5.90;;
45932;SDS011;51011;46.790;17.184;2022-07-23T08:39:48;7.65;;;6.20;;
45932;SDS011;51011;46.790;17.184;2022-07-23T08:42:14;7.80;;;6.13;;
45932;SDS011;51011;46.790;17.184;2022-07-23T08:44:44;8.00;;;5.90;;
45932;SDS011;51011;46.790;17.184;2022-07-23T08:47:11;7.13;;;5.93;;
45932;SDS011;51011;46.790;17.184;2022-07-23T08:49:37;8.40;;;6.43;;
45932;SDS011;51011;46.790;17.184;2022-07-23T08:52:04;9.65;;;6.07;;
45932;SDS011;51011;46.790;17.184;2022-07-23T08:54:30;8.15;;;5.93;;
45932;SDS011;51011;46.790;17.184;2022-07-23T08:56:56;9.32;;;6.38;;
45932;SDS011;51011;46.790;17.184;2022-07-23T08:59:22;6.78;;;6.07;;
45932;SDS011;51011;46.790;17.184;2022-07-23T09:01:47;7.13;;;6.40;;
45932;SDS011;51011;46.790;17.184;2022-07-23T09:04:13;8.52;;;6.40;;
45932;SDS011;51011;46.790;17.184;2022-07-23T09:06:38;10.13;;;6.07;;
45932;SDS011;51011;46.790;17.184;2022-07-23T09:09:16;9.63;;;6.40;;
45932;SDS011;51011;46.790;17.184;2022-07-23T09:11:47;12.50;;;6.82;;
45932;SDS011;51011;46.790;17.184;2022-07-23T09:14:13;7.50;;;6.80;;
45932;SDS011;51011;46.790;17.184;2022-07-23T09:16:39;8.35;;;6.53;;
45932;SDS011;51011;46.790;17.184;2022-07-23T09:19:06;9.40;;;6.50;;
45932;SDS011;51011;46.790;17.184;2022-07-23T09:21:32;8.95;;;6.90;;
45932;SDS011;51011;46.790;17.184;2022-07-23T09:24:16;9.73;;;6.22;;
45932;SDS011;51011;46.790;17.184;2022-07-23T09:26:45;9.15;;;6.65;;
45932;SDS011;51011;46.790;17.184;2022-07-23T09:29:13;8.38;;;7.13;;
45932;SDS011;51011;46.790;17.184;2022-07-23T09:31:46;9.50;;;6.53;;
45932;SDS011;51011;46.790;17.184;2022-07-23T09:34:13;7.25;;;6.55;;
45932;SDS011;51011;46.790;17.184;2022-07-23T09:36:40;7.60;;;6.80;;
45932;SDS011;51011;46.790;17.184;2022-07-23T09:39:06;9.80;;;7.15;;
45932;SDS011;51011;46.790;17.184;2022-07-23T09:41:45;9.77;;;6.80;;
45932;SDS011;51011;46.790;17.184;2022-07-23T09:44:12;8.73;;;6.80;;
45932;SDS011;51011;46.790;17.184;2022-07-23T09:46:44;7.87;;;6.43;;
45932;SDS011;51011;46.790;17.184;2022-07-23T09:49:15;8.07;;;6.22;;
45932;SDS011;51011;46.790;17.184;2022-07-23T09:51:45;7.53;;;6.70;;
45932;SDS011;51011;46.790;17.184;2022-07-23T09:54:25;8.25;;;7.05;;
45932;SDS011;51011;46.790;17.184;2022-07-23T09:57:02;7.38;;;6.63;;
45932;SDS011;51011;46.790;17.184;2022-07-23T09:59:31;8.15;;;7.35;;
45932;SDS011;51011;46.790;17.184;2022-07-23T10:01:59;8.55;;;7.10;;
45932;SDS011;51011;46.790;17.184;2022-07-23T10:04:26;9.25;;;7.55;;
45932;SDS011;51011;46.790;17.184;2022-07-23T10:07:11;8.13;;;7.32;;
45932;SDS011;51011;46.790;17.184;2022-07-23T10:09:57;9.13;;;8.25;;
45932;SDS011;51011;46.790;17.184;2022-07-23T10:12:47;10.52;;;7.72;;
45932;SDS011;51011;46.790;17.184;2022-07-23T10:15:27;8.48;;;7.68;;
45932;SDS011;51011;46.790;17.184;2022-07-23T10:17:53;8.38;;;7.68;;
45932;SDS011;51011;46.790;17.184;2022-07-23T10:20:18;9.15;;;8.27;;
45932;SDS011;51011;46.790;17.184;2022-07-23T10:22:46;12.23;;;7.95;;
45932;SDS011;51011;46.790;17.184;2022-07-23T10:25:20;8.27;;;7.47;;
45932;SDS011;51011;46.790;17.184;2022-07-23T10:41:34;12.25;;;11.15;;
45932;SDS011;51011;46.790;17.184;2022-07-23T10:44:14;13.95;;;12.73;;
45932;SDS011;51011;46.790;17.184;2022-07-23T10:46:54;13.88;;;12.63;;
45932;SDS011;51011;46.790;17.184;2022-07-23T10:49:41;13.25;;;11.95;;
45932;SDS011;51011;46.790;17.184;2022-07-23T10:54:46;14.23;;;12.82;;
45932;SDS011;51011;46.790;17.184;2022-07-23T10:57:14;14.25;;;12.75;;
45932;SDS011;51011;46.790;17.184;2022-07-23T11:00:08;13.95;;;12.52;;
45932;SDS011;51011;46.790;17.184;2022-07-23T11:02:35;14.43;;;13.02;;
45932;SDS011;51011;46.790;17.184;2022-07-23T11:05:03;13.30;;;12.05;;
45932;SDS011;51011;46.790;17.184;2022-07-23T11:07:31;14.15;;;12.82;;
45932;SDS011;51011;46.790;17.184;2022-07-23T11:09:58;13.70;;;12.50;;
45932;SDS011;51011;46.790;17.184;2022-07-23T11:25:10;15.10;;;13.70;;
45932;SDS011;51011;46.790;17.184;2022-07-23T11:27:43;15.95;;;14.65;;
45932;SDS011;51011;46.790;17.184;2022-07-23T11:30:11;14.70;;;13.27;;
45932;SDS011;51011;46.790;17.184;2022-07-23T11:35:33;13.43;;;12.43;;
45932;SDS011;51011;46.790;17.184;2022-07-23T11:38:13;14.07;;;12.68;;
45932;SDS011;51011;46.790;17.184;2022-07-23T11:40:40;14.48;;;12.38;;
45932;SDS011;51011;46.790;17.184;2022-07-23T11:43:07;13.55;;;12.15;;
45932;SDS011;51011;46.790;17.184;2022-07-23T11:45:41;12.80;;;11.55;;
45932;SDS011;51011;46.790;17.184;2022-07-23T11:48:21;13.68;;;12.05;;
45932;SDS011;51011;46.790;17.184;2022-07-23T11:50:48;13.73;;;12.57;;
45932;SDS011;51011;46.790;17.184;2022-07-23T11:53:21;13.93;;;12.60;;
45932;SDS011;51011;46.790;17.184;2022-07-23T11:55:47;14.18;;;12.77;;
45932;SDS011;51011;46.790;17.184;2022-07-23T11:58:12;14.35;;;13.10;;
45932;SDS011;51011;46.790;17.184;2022-07-23T12:00:39;14.48;;;13.18;;
45932;SDS011;51011;46.790;17.184;2022-07-23T12:03:05;14.65;;;13.18;;
45932;SDS011;51011;46.790;17.184;2022-07-23T12:05:33;14.60;;;13.40;;
45932;SDS011;51011;46.790;17.184;2022-07-23T12:08:02;15.23;;;13.63;;
45932;SDS011;51011;46.790;17.184;2022-07-23T12:13:00;15.93;;;14.43;;
45932;SDS011;51011;46.790;17.184;2022-07-23T12:15:29;16.38;;;14.90;;
45932;SDS011;51011;46.790;17.184;2022-07-23T12:17:58;16.25;;;14.85;;
45932;SDS011;51011;46.790;17.184;2022-07-23T12:20:28;15.27;;;13.85;;
45932;SDS011;51011;46.790;17.184;2022-07-23T12:22:56;15.45;;;14.05;;
45932;SDS011;51011;46.790;17.184;2022-07-23T12:25:27;13.55;;;12.27;;
45932;SDS011;51011;46.790;17.184;2022-07-23T12:27:59;16.15;;;14.85;;
45932;SDS011;51011;46.790;17.184;2022-07-23T12:30:31;16.20;;;14.93;;
45932;SDS011;51011;46.790;17.184;2022-07-23T12:33:09;15.50;;;14.20;;
45932;SDS011;51011;46.790;17.184;2022-07-23T12:35:37;16.35;;;15.00;;
45932;SDS011;51011;46.790;17.184;2022-07-23T12:38:07;18.05;;;16.38;;
45932;SDS011;51011;46.790;17.184;2022-07-23T12:40:35;17.15;;;15.73;;
45932;SDS011;51011;46.790;17.184;2022-07-23T12:43:08;17.27;;;15.70;;
45932;SDS011;51011;46.790;17.184;2022-07-23T12:45:49;16.52;;;15.23;;
45932;SDS011;51011;46.790;17.184;2022-07-23T12:48:25;17.13;;;15.57;;
45932;SDS011;51011;46.790;17.184;2022-07-23T12:53:40;15.93;;;14.43;;
45932;SDS011;51011;46.790;17.184;2022-07-23T12:56:26;15.75;;;14.48;;
45932;SDS011;51011;46.790;17.184;2022-07-23T12:58:54;17.83;;;16.35;;
45932;SDS011;51011;46.790;17.184;2022-07-23T13:03:54;16.38;;;15.07;;
45932;SDS011;51011;46.790;17.184;2022-07-23T13:06:20;17.13;;;15.73;;
45932;SDS011;51011;46.790;17.184;2022-07-23T13:08:45;17.85;;;16.25;;
45932;SDS011;51011;46.790;17.184;2022-07-23T13:11:11;16.65;;;14.95;;
45932;SDS011;51011;46.790;17.184;2022-07-23T13:13:37;16.38;;;14.85;;
45932;SDS011;51011;46.790;17.184;2022-07-23T13:16:02;16.92;;;15.50;;
45932;SDS011;51011;46.790;17.184;2022-07-23T13:18:28;17.88;;;15.98;;
45932;SDS011;51011;46.790;17.184;2022-07-23T13:20:55;15.55;;;14.20;;
45932;SDS011;51011;46.790;17.184;2022-07-23T13:23:22;15.10;;;13.63;;
45932;SDS011;51011;46.790;17.184;2022-07-23T13:25:48;14.77;;;13.38;;
45932;SDS011;51011;46.790;17.184;2022-07-23T13:28:14;15.73;;;14.23;;
45932;SDS011;51011;46.790;17.184;2022-07-23T13:30:40;15.20;;;13.85;;
45932;SDS011;51011;46.790;17.184;2022-07-23T13:33:06;15.00;;;13.82;;
45932;SDS011;51011;46.790;17.184;2022-07-23T13:35:33;16.17;;;14.75;;
45932;SDS011;51011;46.790;17.184;2022-07-23T13:38:00;16.15;;;14.75;;
45932;SDS011;51011;46.790;17.184;2022-07-23T13:40:26;16.40;;;14.85;;
45932;SDS011;51011;46.790;17.184;2022-07-23T13:42:51;14.50;;;13.10;;
45932;SDS011;51011;46.790;17.184;2022-07-23T13:45:18;14.25;;;12.98;;
45932;SDS011;51011;46.790;17.184;2022-07-23T13:47:43;14.23;;;12.95;;
45932;SDS011;51011;46.790;17.184;2022-07-23T13:50:09;14.65;;;13.25;;
45932;SDS011;51011;46.790;17.184;2022-07-23T13:52:34;14.68;;;13.23;;
45932;SDS011;51011;46.790;17.184;2022-07-23T13:55:01;14.75;;;13.55;;
45932;SDS011;51011;46.790;17.184;2022-07-23T13:57:27;14.50;;;13.25;;
45932;SDS011;51011;46.790;17.184;2022-07-23T13:59:53;14.48;;;13.13;;
45932;SDS011;51011;46.790;17.184;2022-07-23T14:02:18;14.07;;;12.93;;
45932;SDS011;51011;46.790;17.184;2022-07-23T14:04:44;15.05;;;13.68;;
45932;SDS011;51011;46.790;17.184;2022-07-23T14:07:09;15.60;;;14.20;;
45932;SDS011;51011;46.790;17.184;2022-07-23T14:09:38;15.55;;;14.10;;
45932;SDS011;51011;46.790;17.184;2022-07-23T14:12:04;14.63;;;13.27;;
45932;SDS011;51011;46.790;17.184;2022-07-23T14:14:29;14.95;;;13.48;;
45932;SDS011;51011;46.790;17.184;2022-07-23T14:16:55;14.43;;;13.23;;
45932;SDS011;51011;46.790;17.184;2022-07-23T14:19:21;14.20;;;12.98;;
45932;SDS011;51011;46.790;17.184;2022-07-23T14:21:46;14.25;;;13.05;;
45932;SDS011;51011;46.790;17.184;2022-07-23T14:24:14;15.05;;;13.65;;
45932;SDS011;51011;46.790;17.184;2022-07-23T14:26:40;14.15;;;12.73;;
45932;SDS011;51011;46.790;17.184;2022-07-23T14:29:05;13.38;;;12.38;;
45932;SDS011;51011;46.790;17.184;2022-07-23T14:31:31;13.40;;;12.32;;
45932;SDS011;51011;46.790;17.184;2022-07-23T14:33:56;12.50;;;11.48;;
45932;SDS011;51011;46.790;17.184;2022-07-23T14:36:23;12.77;;;11.68;;
45932;SDS011;51011;46.790;17.184;2022-07-23T14:38:49;13.25;;;11.95;;
45932;SDS011;51011;46.790;17.184;2022-07-23T14:41:15;13.32;;;12.13;;
45932;SDS011;51011;46.790;17.184;2022-07-23T14:43:40;13.75;;;12.57;;
45932;SDS011;51011;46.790;17.184;2022-07-23T14:46:07;13.23;;;11.95;;
45932;SDS011;51011;46.790;17.184;2022-07-23T14:48:33;13.73;;;12.23;;
45932;SDS011;51011;46.790;17.184;2022-07-23T14:50:58;20.67;;;10.10;;
45932;SDS011;51011;46.790;17.184;2022-07-23T14:53:24;26.95;;;9.18;;
45932;SDS011;51011;46.790;17.184;2022-07-23T14:55:49;30.77;;;8.50;;
45932;SDS011;51011;46.790;17.184;2022-07-23T14:58:15;28.08;;;8.90;;
45932;SDS011;51011;46.790;17.184;2022-07-23T15:00:40;21.52;;;8.52;;
45932;SDS011;51011;46.790;17.184;2022-07-23T15:03:06;14.60;;;7.88;;
45932;SDS011;51011;46.790;17.184;2022-07-23T15:05:32;12.35;;;7.30;;
45932;SDS011;51011;46.790;17.184;2022-07-23T15:07:59;13.38;;;8.02;;
45932;SDS011;51011;46.790;17.184;2022-07-23T15:10:25;15.07;;;7.70;;
45932;SDS011;51011;46.790;17.184;2022-07-23T15:12:51;10.32;;;7.80;;
45932;SDS011;51011;46.790;17.184;2022-07-23T15:15:16;11.82;;;7.68;;
45932;SDS011;51011;46.790;17.184;2022-07-23T15:17:42;11.77;;;7.85;;
45932;SDS011;51011;46.790;17.184;2022-07-23T15:20:08;10.25;;;7.32;;
45932;SDS011;51011;46.790;17.184;2022-07-23T15:22:34;10.65;;;7.10;;
45932;SDS011;51011;46.790;17.184;2022-07-23T15:25:00;8.00;;;7.20;;
45932;SDS011;51011;46.790;17.184;2022-07-23T15:27:26;8.48;;;6.88;;
45932;SDS011;51011;46.790;17.184;2022-07-23T15:29:52;10.75;;;7.13;;
45932;SDS011;51011;46.790;17.184;2022-07-23T15:32:19;8.63;;;7.13;;
45932;SDS011;51011;46.790;17.184;2022-07-23T15:34:44;11.02;;;7.55;;
45932;SDS011;51011;46.790;17.184;2022-07-23T15:37:10;8.85;;;7.55;;
45932;SDS011;51011;46.790;17.184;2022-07-23T15:39:36;7.90;;;7.20;;
45932;SDS011;51011;46.790;17.184;2022-07-23T15:42:02;9.30;;;7.03;;
45932;SDS011;51011;46.790;17.184;2022-07-23T15:44:28;8.52;;;7.50;;
45932;SDS011;51011;46.790;17.184;2022-07-23T15:46:53;8.50;;;7.57;;
45932;SDS011;51011;46.790;17.184;2022-07-23T15:49:20;9.75;;;7.60;;
45932;SDS011;51011;46.790;17.184;2022-07-23T15:51:45;10.02;;;7.47;;